sensor_id;sensor_type;location;lat;lon;timestamp;pressure;altitude;pressure_sealevel;temperature;humidity
71105;BME280;58760;48.716;8.962;2022-10-16T00:01:17;96375.06;;;14.30;97.31
71105;BME280;58760;48.716;8.962;2022-10-16T00:03:44;96368.13;;;14.36;97.06
71105;BME280;58760;48.716;8.962;2022-10-16T00:06:10;96374.69;;;14.33;97.11
71105;BME280;58760;48.716;8.962;2022-10-16T00:08:36;96366.47;;;14.35;97.44
71105;BME280;58760;48.716;8.962;2022-10-16T00:11:03;96366.00;;;14.31;97.17
71105;BME280;58760;48.716;8.962;2022-10-16T00:13:30;96374.41;;;14.28;97.05
71105;BME280;58760;48.716;8.962;2022-10-16T00:15:57;96383.22;;;14.22;97.14
71105;BME280;58760;48.716;8.962;2022-10-16T00:18:23;96377.28;;;14.20;96.91
71105;BME280;58760;48.716;8.962;2022-10-16T00:20:48;96380.75;;;14.21;96.54
71105;BME280;58760;48.716;8.962;2022-10-16T00:23:14;96376.19;;;14.14;96.87
71105;BME280;58760;48.716;8.962;2022-10-16T00:25:39;96372.69;;;14.07;97.24
71105;BME280;58760;48.716;8.962;2022-10-16T00:28:05;96377.38;;;14.05;97.64
71105;BME280;58760;48.716;8.962;2022-10-16T00:30:30;96378.19;;;13.99;97.55
71105;BME280;58760;48.716;8.962;2022-10-16T00:32:55;96380.44;;;13.96;97.87
71105;BME280;58760;48.716;8.962;2022-10-16T00:35:21;96381.44;;;13.95;97.86
71105;BME280;58760;48.716;8.962;2022-10-16T00:37:46;96382.22;;;13.89;98.57
71105;BME280;58760;48.716;8.962;2022-10-16T00:40:12;96378.72;;;13.88;98.65
71105;BME280;58760;48.716;8.962;2022-10-16T00:42:37;96376.91;;;13.89;98.51
71105;BME280;58760;48.716;8.962;2022-10-16T00:45:03;96376.91;;;13.89;98.64
71105;BME280;58760;48.716;8.962;2022-10-16T00:47:33;96370.16;;;13.93;98.65
71105;BME280;58760;48.716;8.962;2022-10-16T00:50:08;96364.41;;;13.96;98.62
71105;BME280;58760;48.716;8.962;2022-10-16T00:52:35;96373.69;;;14.00;98.47
71105;BME280;58760;48.716;8.962;2022-10-16T00:55:03;96388.03;;;13.99;98.05
71105;BME280;58760;48.716;8.962;2022-10-16T00:57:29;96388.69;;;14.01;97.88
71105;BME280;58760;48.716;8.962;2022-10-16T00:59:55;96389.69;;;14.00;98.05
71105;BME280;58760;48.716;8.962;2022-10-16T01:02:20;96386.41;;;13.98;98.13
71105;BME280;58760;48.716;8.962;2022-10-16T01:04:48;96382.28;;;14.02;98.43
71105;BME280;58760;48.716;8.962;2022-10-16T01:12:53;96399.97;;;14.03;98.20
71105;BME280;58760;48.716;8.962;2022-10-16T01:23:10;96387.63;;;14.02;98.02
71105;BME280;58760;48.716;8.962;2022-10-16T01:28:11;96386.41;;;13.98;98.39
71105;BME280;58760;48.716;8.962;2022-10-16T01:30:40;96394.41;;;13.98;98.62
71105;BME280;58760;48.716;8.962;2022-10-16T01:35:42;96393.00;;;14.08;96.78
71105;BME280;58760;48.716;8.962;2022-10-16T01:38:19;96392.56;;;14.05;96.93
71105;BME280;58760;48.716;8.962;2022-10-16T01:40:50;96385.78;;;14.02;97.39
71105;BME280;58760;48.716;8.962;2022-10-16T01:43:20;96383.94;;;14.03;97.40
71105;BME280;58760;48.716;8.962;2022-10-16T01:45:48;96378.63;;;14.03;97.92
71105;BME280;58760;48.716;8.962;2022-10-16T01:48:17;96378.63;;;14.03;98.38
71105;BME280;58760;48.716;8.962;2022-10-16T01:50:44;96377.78;;;14.02;98.70
71105;BME280;58760;48.716;8.962;2022-10-16T01:53:14;96370.81;;;14.01;98.53
71105;BME280;58760;48.716;8.962;2022-10-16T01:55:43;96367.94;;;14.03;98.50
71105;BME280;58760;48.716;8.962;2022-10-16T01:58:12;96372.88;;;14.06;98.11
71105;BME280;58760;48.716;8.962;2022-10-16T02:00:39;96368.38;;;14.06;98.02
71105;BME280;58760;48.716;8.962;2022-10-16T02:03:07;96374.53;;;14.07;98.36
71105;BME280;58760;48.716;8.962;2022-10-16T02:08:04;96374.53;;;14.07;98.88
71105;BME280;58760;48.716;8.962;2022-10-16T02:10:30;96381.50;;;14.08;98.29
71105;BME280;58760;48.716;8.962;2022-10-16T02:13:11;96387.47;;;14.10;98.71
71105;BME280;58760;48.716;8.962;2022-10-16T02:15:38;96386.84;;;14.08;97.79
71105;BME280;58760;48.716;8.962;2022-10-16T02:18:05;96388.50;;;14.09;97.78
71105;BME280;58760;48.716;8.962;2022-10-16T02:20:34;96390.16;;;14.10;98.04
71105;BME280;58760;48.716;8.962;2022-10-16T02:23:04;96380.50;;;14.09;98.73
71105;BME280;58760;48.716;8.962;2022-10-16T02:25:38;96379.03;;;14.06;99.05
71105;BME280;58760;48.716;8.962;2022-10-16T02:28:24;96371.63;;;14.02;99.69
71105;BME280;58760;48.716;8.962;2022-10-16T02:30:56;96374.69;;;13.99;99.43
71105;BME280;58760;48.716;8.962;2022-10-16T02:33:25;96375.91;;;13.96;99.46
71105;BME280;58760;48.716;8.962;2022-10-16T02:35:52;96371.59;;;13.95;99.53
71105;BME280;58760;48.716;8.962;2022-10-16T02:38:20;96373.06;;;13.98;99.81
71105;BME280;58760;48.716;8.962;2022-10-16T02:40:46;96375.09;;;13.96;99.69
71105;BME280;58760;48.716;8.962;2022-10-16T02:43:11;96376.94;;;13.95;99.63
71105;BME280;58760;48.716;8.962;2022-10-16T02:45:37;96395.81;;;13.94;99.43
71105;BME280;58760;48.716;8.962;2022-10-16T02:48:02;96388.22;;;13.91;99.70
71105;BME280;58760;48.716;8.962;2022-10-16T02:50:28;96390.44;;;13.87;100.00
71105;BME280;58760;48.716;8.962;2022-10-16T02:52:53;96394.34;;;13.85;100.00
71105;BME280;58760;48.716;8.962;2022-10-16T02:55:19;96396.34;;;13.83;100.00
71105;BME280;58760;48.716;8.962;2022-10-16T02:57:44;96395.75;;;13.81;100.00
71105;BME280;58760;48.716;8.962;2022-10-16T03:00:12;96390.81;;;13.78;100.00
71105;BME280;58760;48.716;8.962;2022-10-16T03:02:37;96395.47;;;13.76;100.00
71105;BME280;58760;48.716;8.962;2022-10-16T03:05:03;96396.53;;;13.75;100.00
71105;BME280;58760;48.716;8.962;2022-10-16T03:07:29;96397.53;;;13.74;100.00
71105;BME280;58760;48.716;8.962;2022-10-16T03:09:54;96392.19;;;13.74;100.00
71105;BME280;58760;48.716;8.962;2022-10-16T03:12:21;96389.16;;;13.77;100.00
71105;BME280;58760;48.716;8.962;2022-10-16T03:14:47;96389.75;;;13.79;100.00
71105;BME280;58760;48.716;8.962;2022-10-16T03:17:12;96390.59;;;13.79;100.00
71105;BME280;58760;48.716;8.962;2022-10-16T03:19:38;96403.09;;;13.79;100.00
71105;BME280;58760;48.716;8.962;2022-10-16T03:22:04;96402.28;;;13.78;100.00
71105;BME280;58760;48.716;8.962;2022-10-16T03:24:29;96400.19;;;13.74;100.00
71105;BME280;58760;48.716;8.962;2022-10-16T03:26:55;96399.75;;;13.70;100.00
71105;BME280;58760;48.716;8.962;2022-10-16T03:29:20;96398.53;;;13.73;100.00
71105;BME280;58760;48.716;8.962;2022-10-16T03:31:45;96400.19;;;13.74;100.00
71105;BME280;58760;48.716;8.962;2022-10-16T03:34:11;96409.59;;;13.70;100.00
71105;BME280;58760;48.716;8.962;2022-10-16T03:36:36;96407.97;;;13.69;100.00
71105;BME280;58760;48.716;8.962;2022-10-16T03:39:02;96401.59;;;13.70;100.00
71105;BME280;58760;48.716;8.962;2022-10-16T03:41:27;96404.91;;;13.72;100.00
71105;BME280;58760;48.716;8.962;2022-10-16T03:43:52;96412.28;;;13.70;100.00
71105;BME280;58760;48.716;8.962;2022-10-16T03:46:18;96413.31;;;13.69;100.00
71105;BME280;58760;48.716;8.962;2022-10-16T03:48:43;96414.53;;;13.73;100.00
71105;BME280;58760;48.716;8.962;2022-10-16T03:51:08;96410.44;;;13.70;100.00
71105;BME280;58760;48.716;8.962;2022-10-16T03:53:34;96411.00;;;13.66;100.00
71105;BME280;58760;48.716;8.962;2022-10-16T03:55:59;96414.91;;;13.63;100.00
71105;BME280;58760;48.716;8.962;2022-10-16T03:58:25;96409.78;;;13.61;100.00
71105;BME280;58760;48.716;8.962;2022-10-16T04:00:50;96409.78;;;13.61;100.00
71105;BME280;58760;48.716;8.962;2022-10-16T04:03:16;96408.72;;;13.62;100.00
71105;BME280;58760;48.716;8.962;2022-10-16T04:05:42;96408.34;;;13.66;100.00
71105;BME280;58760;48.716;8.962;2022-10-16T04:08:07;96413.94;;;13.71;100.00
71105;BME280;58760;48.716;8.962;2022-10-16T04:10:33;96404.13;;;13.78;100.00
71105;BME280;58760;48.716;8.962;2022-10-16T04:12:58;96401.69;;;13.83;99.75
71105;BME280;58760;48.716;8.962;2022-10-16T04:15:24;96410.13;;;13.86;98.95
71105;BME280;58760;48.716;8.962;2022-10-16T04:17:50;96402.34;;;13.85;98.85
71105;BME280;58760;48.716;8.962;2022-10-16T04:20:16;96413.63;;;13.87;98.89
71105;BME280;58760;48.716;8.962;2022-10-16T04:22:42;96405.00;;;13.85;98.63
71105;BME280;58760;48.716;8.962;2022-10-16T04:25:07;96403.13;;;13.85;98.68
71105;BME280;58760;48.716;8.962;2022-10-16T04:27:33;96402.34;;;13.85;98.82
71105;BME280;58760;48.716;8.962;2022-10-16T04:29:59;96399.84;;;13.83;99.20
71105;BME280;58760;48.716;8.962;2022-10-16T04:32:25;96401.91;;;13.81;99.19
71105;BME280;58760;48.716;8.962;2022-10-16T04:34:51;96402.28;;;13.78;99.44
71105;BME280;58760;48.716;8.962;2022-10-16T04:37:17;96411.31;;;13.77;99.42
71105;BME280;58760;48.716;8.962;2022-10-16T04:39:42;96412.13;;;13.78;99.45
71105;BME280;58760;48.716;8.962;2022-10-16T04:42:08;96416.25;;;13.80;99.07
71105;BME280;58760;48.716;8.962;2022-10-16T04:44:33;96423.69;;;13.85;98.88
71105;BME280;58760;48.716;8.962;2022-10-16T04:46:59;96424.06;;;13.82;99.05
71105;BME280;58760;48.716;8.962;2022-10-16T04:49:24;96424.25;;;13.80;99.21
71105;BME280;58760;48.716;8.962;2022-10-16T04:51:49;96433.47;;;13.78;99.56
71105;BME280;58760;48.716;8.962;2022-10-16T04:54:15;96432.38;;;13.72;99.68
71105;BME280;58760;48.716;8.962;2022-10-16T04:56:40;96430.94;;;13.70;100.00
71105;BME280;58760;48.716;8.962;2022-10-16T04:59:12;96441.16;;;13.66;100.00
71105;BME280;58760;48.716;8.962;2022-10-16T05:01:38;96439.09;;;13.61;100.00
71105;BME280;58760;48.716;8.962;2022-10-16T05:04:03;96441.00;;;13.68;100.00
71105;BME280;58760;48.716;8.962;2022-10-16T05:06:29;96442.25;;;13.72;100.00
71105;BME280;58760;48.716;8.962;2022-10-16T05:08:54;96438.31;;;13.68;100.00
71105;BME280;58760;48.716;8.962;2022-10-16T05:11:20;96440.09;;;13.60;100.00
71105;BME280;58760;48.716;8.962;2022-10-16T05:13:45;96426.94;;;13.52;100.00
71105;BME280;58760;48.716;8.962;2022-10-16T05:16:11;96431.81;;;13.49;100.00
71105;BME280;58760;48.716;8.962;2022-10-16T05:18:36;96429.72;;;13.44;100.00
71105;BME280;58760;48.716;8.962;2022-10-16T05:21:01;96426.44;;;13.42;100.00
71105;BME280;58760;48.716;8.962;2022-10-16T05:23:27;96434.88;;;13.46;100.00
71105;BME280;58760;48.716;8.962;2022-10-16T05:25:54;96436.56;;;13.53;100.00
71105;BME280;58760;48.716;8.962;2022-10-16T05:28:20;96428.88;;;13.65;100.00
71105;BME280;58760;48.716;8.962;2022-10-16T05:30:46;96439.16;;;13.68;99.16
71105;BME280;58760;48.716;8.962;2022-10-16T05:33:11;96444.53;;;13.75;98.47
71105;BME280;58760;48.716;8.962;2022-10-16T05:35:36;96443.94;;;13.79;97.57
71105;BME280;58760;48.716;8.962;2022-10-16T05:38:02;96443.31;;;13.77;97.18
71105;BME280;58760;48.716;8.962;2022-10-16T05:40:27;96440.81;;;13.76;97.68
71105;BME280;58760;48.716;8.962;2022-10-16T05:42:56;96446.75;;;13.71;97.57
71105;BME280;58760;48.716;8.962;2022-10-16T05:45:21;96449.44;;;13.71;97.86
71105;BME280;58760;48.716;8.962;2022-10-16T05:47:46;96452.09;;;13.71;97.91
71105;BME280;58760;48.716;8.962;2022-10-16T05:50:12;96452.28;;;13.70;98.11
71105;BME280;58760;48.716;8.962;2022-10-16T05:52:37;96452.09;;;13.71;97.93
71105;BME280;58760;48.716;8.962;2022-10-16T05:55:03;96461.72;;;13.72;97.75
71105;BME280;58760;48.716;8.962;2022-10-16T05:57:28;96462.56;;;13.73;97.93
71105;BME280;58760;48.716;8.962;2022-10-16T05:59:55;96477.72;;;13.72;97.71
71105;BME280;58760;48.716;8.962;2022-10-16T06:02:20;96469.59;;;13.80;97.79
71105;BME280;58760;48.716;8.962;2022-10-16T06:04:46;96462.41;;;13.81;97.44
71105;BME280;58760;48.716;8.962;2022-10-16T06:07:11;96466.75;;;13.82;97.36
71105;BME280;58760;48.716;8.962;2022-10-16T06:09:37;96471.75;;;13.91;96.98
71105;BME280;58760;48.716;8.962;2022-10-16T06:12:02;96478.25;;;13.89;97.03
71105;BME280;58760;48.716;8.962;2022-10-16T06:14:28;96478.25;;;13.89;97.15
71105;BME280;58760;48.716;8.962;2022-10-16T06:16:53;96483.19;;;13.92;97.07
71105;BME280;58760;48.716;8.962;2022-10-16T06:19:18;96481.56;;;13.91;97.44
71105;BME280;58760;48.716;8.962;2022-10-16T06:21:44;96480.53;;;13.92;97.26
71105;BME280;58760;48.716;8.962;2022-10-16T06:24:10;96476.69;;;13.94;97.72
71105;BME280;58760;48.716;8.962;2022-10-16T06:26:35;96471.53;;;13.93;98.07
71105;BME280;58760;48.716;8.962;2022-10-16T06:29:01;96466.81;;;13.95;98.21
71105;BME280;58760;48.716;8.962;2022-10-16T06:31:28;96484.47;;;13.96;98.34
71105;BME280;58760;48.716;8.962;2022-10-16T06:33:56;96478.75;;;13.99;98.19
71105;BME280;58760;48.716;8.962;2022-10-16T06:36:23;96485.34;;;14.03;97.51
71105;BME280;58760;48.716;8.962;2022-10-16T06:38:49;96492.38;;;14.10;97.50
71105;BME280;58760;48.716;8.962;2022-10-16T06:41:17;96501.44;;;14.16;97.33
71105;BME280;58760;48.716;8.962;2022-10-16T06:43:43;96508.03;;;14.20;96.70
71105;BME280;58760;48.716;8.962;2022-10-16T06:46:11;96509.53;;;14.29;96.59
71105;BME280;58760;48.716;8.962;2022-10-16T06:48:37;96510.97;;;14.32;96.00
71105;BME280;58760;48.716;8.962;2022-10-16T06:51:14;96511.06;;;14.38;96.32
71105;BME280;58760;48.716;8.962;2022-10-16T06:53:51;96509.44;;;14.44;96.26
71105;BME280;58760;48.716;8.962;2022-10-16T06:56:19;96506.78;;;14.50;96.06
71105;BME280;58760;48.716;8.962;2022-10-16T06:58:46;96519.38;;;14.56;95.59
71105;BME280;58760;48.716;8.962;2022-10-16T07:01:12;96525.94;;;14.60;95.18
71105;BME280;58760;48.716;8.962;2022-10-16T07:03:40;96530.91;;;14.63;94.82
71105;BME280;58760;48.716;8.962;2022-10-16T07:06:06;96538.16;;;14.76;94.38
71105;BME280;58760;48.716;8.962;2022-10-16T07:08:36;96538.19;;;14.83;94.19
71105;BME280;58760;48.716;8.962;2022-10-16T07:11:04;96549.34;;;14.99;93.18
71105;BME280;58760;48.716;8.962;2022-10-16T07:13:33;96546.94;;;15.11;92.27
71105;BME280;58760;48.716;8.962;2022-10-16T07:18:32;96562.69;;;14.93;93.16
71105;BME280;58760;48.716;8.962;2022-10-16T07:21:09;96561.88;;;14.92;92.94
71105;BME280;58760;48.716;8.962;2022-10-16T07:23:35;96565.59;;;14.98;92.54
71105;BME280;58760;48.716;8.962;2022-10-16T07:26:00;96569.91;;;14.99;92.12
71105;BME280;58760;48.716;8.962;2022-10-16T07:28:26;96564.38;;;15.00;91.82
71105;BME280;58760;48.716;8.962;2022-10-16T07:30:52;96561.91;;;15.05;92.16
71105;BME280;58760;48.716;8.962;2022-10-16T07:33:17;96562.56;;;15.14;91.25
71105;BME280;58760;48.716;8.962;2022-10-16T07:35:54;96565.69;;;15.24;91.17
71105;BME280;58760;48.716;8.962;2022-10-16T07:38:20;96566.59;;;15.44;90.26
71105;BME280;58760;48.716;8.962;2022-10-16T07:40:46;96571.94;;;15.44;90.07
71105;BME280;58760;48.716;8.962;2022-10-16T07:43:11;96569.25;;;15.44;90.60
71105;BME280;58760;48.716;8.962;2022-10-16T07:45:37;96572.53;;;15.46;91.05
71105;BME280;58760;48.716;8.962;2022-10-16T07:48:03;96587.38;;;15.49;90.29
71105;BME280;58760;48.716;8.962;2022-10-16T07:50:28;96585.91;;;15.46;91.18
71105;BME280;58760;48.716;8.962;2022-10-16T07:52:54;96578.38;;;15.63;90.44
71105;BME280;58760;48.716;8.962;2022-10-16T07:55:19;96584.16;;;15.73;89.78
71105;BME280;58760;48.716;8.962;2022-10-16T07:57:44;96589.72;;;15.85;89.13
71105;BME280;58760;48.716;8.962;2022-10-16T08:00:10;96588.06;;;15.97;88.25
71105;BME280;58760;48.716;8.962;2022-10-16T08:02:39;96590.34;;;15.93;88.93
71105;BME280;58760;48.716;8.962;2022-10-16T08:05:05;96589.75;;;16.11;88.70
71105;BME280;58760;48.716;8.962;2022-10-16T08:07:30;96588.09;;;16.30;87.25
71105;BME280;58760;48.716;8.962;2022-10-16T08:09:55;96586.44;;;16.42;87.02
71105;BME280;58760;48.716;8.962;2022-10-16T08:12:23;96596.75;;;16.58;85.94
71105;BME280;58760;48.716;8.962;2022-10-16T08:14:48;96590.56;;;16.70;85.61
71105;BME280;58760;48.716;8.962;2022-10-16T08:17:14;96591.16;;;16.72;86.09
71105;BME280;58760;48.716;8.962;2022-10-16T08:19:44;96600.59;;;16.82;85.54
71105;BME280;58760;48.716;8.962;2022-10-16T08:22:09;96598.78;;;16.76;84.48
71105;BME280;58760;48.716;8.962;2022-10-16T08:24:35;96594.63;;;16.93;83.18
71105;BME280;58760;48.716;8.962;2022-10-16T08:27:02;96601.63;;;16.94;83.09
71105;BME280;58760;48.716;8.962;2022-10-16T08:29:27;96611.72;;;16.92;82.74
71105;BME280;58760;48.716;8.962;2022-10-16T08:31:53;96603.69;;;16.92;82.28
71105;BME280;58760;48.716;8.962;2022-10-16T08:34:18;96612.72;;;16.97;82.28
71105;BME280;58760;48.716;8.962;2022-10-16T08:36:44;96615.06;;;16.87;82.05
71105;BME280;58760;48.716;8.962;2022-10-16T08:39:09;96618.75;;;16.86;83.14
71105;BME280;58760;48.716;8.962;2022-10-16T08:45:21;96616.28;;;16.85;82.64
71105;BME280;58760;48.716;8.962;2022-10-16T08:48:06;96623.41;;;17.10;82.88
71105;BME280;58760;48.716;8.962;2022-10-16T08:50:38;96636.88;;;16.91;79.76
71105;BME280;58760;48.716;8.962;2022-10-16T08:53:05;96636.69;;;16.79;80.36
71105;BME280;58760;48.716;8.962;2022-10-16T08:55:38;96628.47;;;16.67;81.79
71105;BME280;58760;48.716;8.962;2022-10-16T08:58:14;96635.28;;;16.57;78.75
71105;BME280;58760;48.716;8.962;2022-10-16T09:00:42;96637.72;;;16.45;80.42
71105;BME280;58760;48.716;8.962;2022-10-16T09:05:54;96634.34;;;17.15;80.29
71105;BME280;58760;48.716;8.962;2022-10-16T09:11:24;96624.03;;;17.70;80.32
71105;BME280;58760;48.716;8.962;2022-10-16T09:16:44;96639.38;;;17.94;78.34
71105;BME280;58760;48.716;8.962;2022-10-16T09:19:31;96640.19;;;18.26;78.45
71105;BME280;58760;48.716;8.962;2022-10-16T09:21:59;96638.09;;;18.28;78.93
71105;BME280;58760;48.716;8.962;2022-10-16T09:24:26;96641.06;;;18.45;77.99
71105;BME280;58760;48.716;8.962;2022-10-16T09:26:51;96638.00;;;18.41;77.08
71105;BME280;58760;48.716;8.962;2022-10-16T09:29:19;96643.13;;;18.49;77.15
71105;BME280;58760;48.716;8.962;2022-10-16T09:31:45;96649.63;;;18.35;76.84
71105;BME280;58760;48.716;8.962;2022-10-16T09:34:27;96645.81;;;18.18;76.77
71105;BME280;58760;48.716;8.962;2022-10-16T09:36:56;96647.56;;;18.06;77.44
71105;BME280;58760;48.716;8.962;2022-10-16T09:39:22;96644.47;;;18.02;77.88
71105;BME280;58760;48.716;8.962;2022-10-16T09:41:48;96651.47;;;18.10;77.70
71105;BME280;58760;48.716;8.962;2022-10-16T09:44:29;96648.63;;;18.29;77.57
71105;BME280;58760;48.716;8.962;2022-10-16T09:47:12;96654.22;;;18.28;78.24
71105;BME280;58760;48.716;8.962;2022-10-16T09:49:38;96650.78;;;18.46;77.49
71105;BME280;58760;48.716;8.962;2022-10-16T09:52:14;96653.16;;;18.60;76.84
71105;BME280;58760;48.716;8.962;2022-10-16T09:54:59;96650.09;;;18.82;75.15
71105;BME280;58760;48.716;8.962;2022-10-16T09:57:25;96650.34;;;18.98;73.07
71105;BME280;58760;48.716;8.962;2022-10-16T09:59:54;96659.66;;;18.96;74.05
71105;BME280;58760;48.716;8.962;2022-10-16T10:02:33;96659.25;;;19.17;72.99
71105;BME280;58760;48.716;8.962;2022-10-16T10:04:59;96660.44;;;19.21;72.45
71105;BME280;58760;48.716;8.962;2022-10-16T10:07:27;96661.06;;;19.41;72.09
71105;BME280;58760;48.716;8.962;2022-10-16T10:09:53;96658.66;;;19.51;71.69
71105;BME280;58760;48.716;8.962;2022-10-16T10:12:24;96665.81;;;19.75;71.29
71105;BME280;58760;48.716;8.962;2022-10-16T10:14:52;96663.47;;;19.97;71.26
71105;BME280;58760;48.716;8.962;2022-10-16T10:19:50;96670.63;;;20.33;69.91
71105;BME280;58760;48.716;8.962;2022-10-16T10:27:43;96665.16;;;20.40;68.18
71105;BME280;58760;48.716;8.962;2022-10-16T10:30:43;96660.25;;;20.48;68.55
71105;BME280;58760;48.716;8.962;2022-10-16T10:33:24;96664.94;;;20.53;67.95
71105;BME280;58760;48.716;8.962;2022-10-16T10:46:56;96663.72;;;21.25;67.45
71105;BME280;58760;48.716;8.962;2022-10-16T10:49:39;96663.94;;;21.35;66.89
71105;BME280;58760;48.716;8.962;2022-10-16T10:55:38;96661.41;;;21.57;65.14
71105;BME280;58760;48.716;8.962;2022-10-16T10:58:15;96665.28;;;21.61;65.23
71105;BME280;58760;48.716;8.962;2022-10-16T11:00:50;96662.53;;;21.72;65.39
71105;BME280;58760;48.716;8.962;2022-10-16T11:08:19;96659.06;;;21.88;62.67
71105;BME280;58760;48.716;8.962;2022-10-16T11:11:02;96659.91;;;22.01;62.97
71105;BME280;58760;48.716;8.962;2022-10-16T11:13:53;96658.94;;;22.07;63.19
71105;BME280;58760;48.716;8.962;2022-10-16T11:16:35;96657.84;;;22.08;63.87
71105;BME280;58760;48.716;8.962;2022-10-16T11:21:51;96664.31;;;22.35;61.02
71105;BME280;58760;48.716;8.962;2022-10-16T11:24:42;96661.22;;;22.43;59.17
71105;BME280;58760;48.716;8.962;2022-10-16T11:27:14;96658.59;;;22.48;61.10
71105;BME280;58760;48.716;8.962;2022-10-16T11:29:53;96656.81;;;22.70;61.60
71105;BME280;58760;48.716;8.962;2022-10-16T11:32:34;96651.75;;;23.46;58.13
71105;BME280;58760;48.716;8.962;2022-10-16T11:35:17;96647.25;;;24.21;54.70
71105;BME280;58760;48.716;8.962;2022-10-16T11:37:46;96652.28;;;24.98;50.92
71105;BME280;58760;48.716;8.962;2022-10-16T11:40:22;96638.41;;;25.93;49.43
71105;BME280;58760;48.716;8.962;2022-10-16T11:42:54;96637.19;;;26.41;46.64
71105;BME280;58760;48.716;8.962;2022-10-16T11:45:34;96626.06;;;26.53;46.66
71105;BME280;58760;48.716;8.962;2022-10-16T11:50:57;96621.69;;;26.67;44.90
71105;BME280;58760;48.716;8.962;2022-10-16T11:55:53;96609.44;;;26.65;44.01
71105;BME280;58760;48.716;8.962;2022-10-16T12:03:44;96608.88;;;27.13;43.86
71105;BME280;58760;48.716;8.962;2022-10-16T12:08:55;96616.03;;;27.78;40.57
71105;BME280;58760;48.716;8.962;2022-10-16T12:14:04;96621.59;;;27.48;41.48
71105;BME280;58760;48.716;8.962;2022-10-16T12:16:30;96614.00;;;27.45;42.08
71105;BME280;58760;48.716;8.962;2022-10-16T12:19:13;96620.03;;;28.01;40.27
71105;BME280;58760;48.716;8.962;2022-10-16T12:21:39;96631.03;;;28.79;39.07
71105;BME280;58760;48.716;8.962;2022-10-16T12:24:05;96630.06;;;28.60;39.67
71105;BME280;58760;48.716;8.962;2022-10-16T12:26:38;96633.72;;;27.91;40.42
71105;BME280;58760;48.716;8.962;2022-10-16T12:29:21;96625.09;;;28.28;39.68
71105;BME280;58760;48.716;8.962;2022-10-16T12:31:48;96628.56;;;27.84;39.43
71105;BME280;58760;48.716;8.962;2022-10-16T12:34:44;96633.72;;;26.81;41.49
71105;BME280;58760;48.716;8.962;2022-10-16T12:37:19;96636.09;;;25.60;44.87
71105;BME280;58760;48.716;8.962;2022-10-16T12:39:47;96635.28;;;24.81;46.60
71105;BME280;58760;48.716;8.962;2022-10-16T12:42:31;96628.78;;;24.45;48.18
71105;BME280;58760;48.716;8.962;2022-10-16T12:44:58;96635.59;;;24.21;48.04
71105;BME280;58760;48.716;8.962;2022-10-16T12:49:56;96632.97;;;23.82;50.30
71105;BME280;58760;48.716;8.962;2022-10-16T12:54:59;96644.06;;;23.59;51.96
71105;BME280;58760;48.716;8.962;2022-10-16T12:59:53;96639.03;;;23.46;50.99
71105;BME280;58760;48.716;8.962;2022-10-16T13:02:44;96641.69;;;23.24;52.23
71105;BME280;58760;48.716;8.962;2022-10-16T13:11:59;96640.53;;;23.20;53.37
71105;BME280;58760;48.716;8.962;2022-10-16T13:20:24;96646.75;;;25.25;49.78
71105;BME280;58760;48.716;8.962;2022-10-16T13:25:45;96648.00;;;25.49;48.14
71105;BME280;58760;48.716;8.962;2022-10-16T13:28:13;96650.31;;;25.25;47.53
71105;BME280;58760;48.716;8.962;2022-10-16T13:30:43;96643.44;;;25.13;47.82
71105;BME280;58760;48.716;8.962;2022-10-16T13:33:15;96646.53;;;25.31;46.60
71105;BME280;58760;48.716;8.962;2022-10-16T13:35:53;96647.22;;;25.12;48.34
71105;BME280;58760;48.716;8.962;2022-10-16T13:38:23;96649.28;;;24.94;47.73
71105;BME280;58760;48.716;8.962;2022-10-16T13:40:52;96644.59;;;24.85;48.75
71105;BME280;58760;48.716;8.962;2022-10-16T13:43:19;96647.81;;;24.55;49.92
71105;BME280;58760;48.716;8.962;2022-10-16T13:45:56;96647.91;;;24.33;49.73
71105;BME280;58760;48.716;8.962;2022-10-16T13:48:22;96639.75;;;24.28;50.39
71105;BME280;58760;48.716;8.962;2022-10-16T13:51:05;96642.66;;;24.22;50.50
71105;BME280;58760;48.716;8.962;2022-10-16T13:53:35;96642.41;;;24.02;50.43
71105;BME280;58760;48.716;8.962;2022-10-16T13:56:05;96637.50;;;23.77;51.53
71105;BME280;58760;48.716;8.962;2022-10-16T13:58:32;96642.25;;;23.65;52.25
71105;BME280;58760;48.716;8.962;2022-10-16T14:01:02;96646.69;;;23.54;52.79
71105;BME280;58760;48.716;8.962;2022-10-16T14:03:30;96639.66;;;23.53;51.70
71105;BME280;58760;48.716;8.962;2022-10-16T14:05:58;96644.59;;;23.56;51.47
71105;BME280;58760;48.716;8.962;2022-10-16T14:08:25;96644.50;;;23.51;51.10
71105;BME280;58760;48.716;8.962;2022-10-16T14:10:55;96646.59;;;23.27;52.57
71105;BME280;58760;48.716;8.962;2022-10-16T14:13:32;96656.69;;;23.15;53.75
71105;BME280;58760;48.716;8.962;2022-10-16T14:16:04;96667.31;;;23.00;55.26
71105;BME280;58760;48.716;8.962;2022-10-16T14:18:30;96656.66;;;23.10;54.76
71105;BME280;58760;48.716;8.962;2022-10-16T14:21:03;96659.00;;;23.40;52.87
71105;BME280;58760;48.716;8.962;2022-10-16T14:23:37;96651.06;;;25.21;48.84
71105;BME280;58760;48.716;8.962;2022-10-16T14:28:35;96658.75;;;25.29;49.36
71105;BME280;58760;48.716;8.962;2022-10-16T14:31:02;96654.53;;;25.06;47.37
71105;BME280;58760;48.716;8.962;2022-10-16T14:33:42;96658.25;;;24.68;48.46
71105;BME280;58760;48.716;8.962;2022-10-16T14:36:15;96659.44;;;25.51;47.18
71105;BME280;58760;48.716;8.962;2022-10-16T14:38:50;96665.31;;;25.85;46.35
71105;BME280;58760;48.716;8.962;2022-10-16T14:41:21;96671.50;;;25.65;47.49
71105;BME280;58760;48.716;8.962;2022-10-16T14:43:51;96672.03;;;25.25;47.82
71105;BME280;58760;48.716;8.962;2022-10-16T14:46:27;96671.91;;;24.73;48.58
71105;BME280;58760;48.716;8.962;2022-10-16T14:49:17;96668.84;;;24.38;49.70
71105;BME280;58760;48.716;8.962;2022-10-16T14:51:45;96672.03;;;24.30;50.15
71105;BME280;58760;48.716;8.962;2022-10-16T14:54:16;96664.66;;;24.04;50.51